CMA CGM Volga — 5BJR2 — position and weather

sailwx.info

Track history (hours):
 
Tides and Currents Weather Stations Pressure Air Temp Water Temp Dewpoint Dewpoint Depression Visibility Wind Speed Wind Dir Waves Ship Positions

CMA CGM Volga

Last reported at 2017-Jul-28 15:00 UTC. Time now 2017-Jul-28 15:09 UTC.
Position N 51°57' E 001°18'.

Length 184 m; draft 6.4 m.

Type: Cargo ship. MMSI: 212456000.

Date/timePositionNaut miles runAvg speedWind from/ knotsBaromVisibWave heightAir tempDewpointWater temp
2017-Jul-28 15:00N 51°57' E 001°18'0 0.0
2017-Jul-28 14:27N 51°57' E 001°18'0 0.0
2017-Jul-28 14:00N 51°57' E 001°18'0 0.0
2017-Jul-28 13:30N 51°57' E 001°18'0 0.0
2017-Jul-28 12:57N 51°57' E 001°18'0 0.0
2017-Jul-28 12:30N 51°57' E 001°18'0 0.1
2017-Jul-28 12:00N 51°57' E 001°18'2 4.7
2017-Jul-28 11:30N 51°55' E 001°21'815.5
2017-Jul-28 11:00N 51°56' E 001°33'611.5
2017-Jul-28 10:31N 51°52' E 001°41'2 4.3
2017-Jul-28 10:00N 51°53' E 001°44'1 1.4
2017-Jul-28 09:30N 51°53' E 001°43'1 1.5
2017-Jul-28 08:59N 51°54' E 001°41'0 0.1
2017-Jul-28 08:26N 51°54' E 001°42'0 0.0
2017-Jul-28 07:59N 51°54' E 001°42'0 0.0
2017-Jul-28 07:29N 51°54' E 001°42'0 0.0
2017-Jul-28 06:56N 51°54' E 001°41'0 0.0
2017-Jul-28 06:29N 51°54' E 001°41'0 0.0
2017-Jul-28 05:56N 51°54' E 001°41'0 0.0
2017-Jul-28 05:29N 51°54' E 001°41'0 0.0
2017-Jul-28 04:50N 51°54' E 001°41'0 0.0
2017-Jul-28 04:26N 51°54' E 001°41'0 0.0
2017-Jul-28 03:59N 51°54' E 001°42'0 0.0
2017-Jul-28 03:29N 51°54' E 001°42'0 0.0
2017-Jul-28 02:56N 51°54' E 001°42'0 0.0
2017-Jul-28 02:29N 51°54' E 001°42'0 0.1
2017-Jul-28 01:59N 51°54' E 001°42'0 0.2
2017-Jul-28 01:23N 51°53' E 001°41'0 0.2
2017-Jul-28 00:56N 51°53' E 001°41'0 0.1
2017-Jul-28 00:29N 51°53' E 001°41'0 0.1
2017-Jul-27 23:59N 51°53' E 001°41'0 0.2
2017-Jul-27 23:29N 51°53' E 001°41'1 2.4
2017-Jul-27 23:00N 51°53' E 001°43'510.3
2017-Jul-27 22:30N 51°50' E 001°50'714.9
2017-Jul-27 22:00N 51°52' E 002°02'6519.3
2017-Jul-27 18:39N 52°03' E 003°45'0 0.0
2017-Jul-27 18:30N 52°03' E 003°45'0 0.0
2017-Jul-27 18:00N 52°03' E 003°45'713.6
2017-Jul-27 17:30N 52°03' E 003°56'510.7
2017-Jul-27 17:00N 51°60' E 004°03'1 2.8
2017-Jul-27 16:30N 51°58' E 004°02'2 3.1
2017-Jul-27 16:00N 51°57' E 004°00'0 0.0
2017-Jul-27 15:30N 51°57' E 004°00'0 0.0
2017-Jul-27 15:00N 51°57' E 004°00'0 0.0
2017-Jul-27 14:00N 51°57' E 004°00'0 0.0
2017-Jul-27 13:09N 51°57' E 004°00'0 0.0
2017-Jul-27 13:00N 51°57' E 004°00'0 0.0
2017-Jul-27 12:30N 51°57' E 004°00'0 0.0
2017-Jul-27 12:00N 51°57' E 004°00'0 0.0
2017-Jul-27 11:30N 51°57' E 004°00'0 0.0
2017-Jul-27 11:00N 51°57' E 004°00'0 0.0
2017-Jul-27 10:30N 51°57' E 004°00'0 0.0
2017-Jul-27 09:04N 51°57' E 004°00'0 0.0
2017-Jul-27 09:00N 51°57' E 004°00'0 0.0
2017-Jul-27 08:28N 51°57' E 004°00'0 0.0
2017-Jul-27 08:00N 51°57' E 004°00'0 0.0
2017-Jul-27 07:06N 51°57' E 004°00'0 0.0
2017-Jul-27 07:00N 51°57' E 004°00'0 0.0
2017-Jul-27 06:26N 51°57' E 004°00'0 0.0
2017-Jul-27 06:00N 51°57' E 004°00'0 0.0
2017-Jul-27 05:30N 51°57' E 004°00'0 0.0
2017-Jul-27 05:00N 51°57' E 004°00'0 0.0
2017-Jul-27 04:30N 51°57' E 004°00'0 0.0
2017-Jul-27 04:00N 51°57' E 004°00'0 0.0
2017-Jul-27 03:30N 51°57' E 004°00'0 0.0
2017-Jul-27 03:00N 51°57' E 004°00'0 0.0
2017-Jul-27 02:30N 51°57' E 004°00'0 0.0
2017-Jul-27 01:51N 51°57' E 004°00'0 0.0
2017-Jul-27 01:30N 51°57' E 004°00'0 0.0
2017-Jul-27 01:00N 51°57' E 004°00'0 0.0
2017-Jul-27 00:30N 51°57' E 004°00'0 0.0
2017-Jul-27 00:00N 51°57' E 004°00'0 0.0
2017-Jul-26 23:30N 51°57' E 004°00'0 0.0
2017-Jul-26 22:55N 51°57' E 004°00'0 0.0
2017-Jul-26 22:30N 51°57' E 004°00'0 0.0
2017-Jul-26 22:00N 51°57' E 004°00'0 0.0
2017-Jul-26 21:30N 51°57' E 004°00'0 0.0
2017-Jul-26 20:35N 51°57' E 004°00'0 0.0
2017-Jul-26 20:30N 51°57' E 004°00'1 2.0
2017-Jul-26 20:00N 51°58' E 003°60'3 6.2
2017-Jul-26 19:31N 51°58' E 004°05'4 8.1
2017-Jul-26 19:01N 52°00' E 003°59'713.9
2017-Jul-26 18:30N 52°00' E 003°48'19 4.1
2017-Jul-26 14:00N 51°54' E 003°20'0 0.0
2017-Jul-26 13:30N 51°54' E 003°20'815.5
2017-Jul-26 13:00N 51°54' E 003°07'2711.5
2017-Jul-26 10:41N 52°15' E 002°40'315.6
2017-Jul-26 10:28N 52°18' E 002°43'14815.2
2017-Jul-26 00:47N 54°23' E 004°54'515.6
2017-Jul-26 00:28N 54°26' E 005°00'815.5
2017-Jul-25 23:58N 54°32' E 005°09'6415.3
2017-Jul-25 19:46N 55°20' E 006°23'415.5
2017-Jul-25 19:30N 55°23' E 006°28'815.6
2017-Jul-25 19:00N 55°29' E 006°37'815.6
2017-Jul-25 18:30N 55°35' E 006°46'815.6
2017-Jul-25 18:00N 55°41' E 006°55'815.6
2017-Jul-25 17:30N 55°46' E 007°05'815.4
2017-Jul-25 17:00N 55°52' E 007°14'915.4
2017-Jul-25 16:26N 55°59' E 007°25'615.3
2017-Jul-25 16:00N 56°03' E 007°33'10514.7
2017-Jul-25 08:52N 57°34' E 009°09'514.8
2017-Jul-25 08:30N 57°37' E 009°17'714.7
2017-Jul-25 08:00N 57°41' E 009°29'715.0
2017-Jul-25 07:30N 57°44' E 009°41'715.0
2017-Jul-25 07:00N 57°47' E 009°54'815.0
2017-Jul-25 06:30N 57°49' E 010°08'816.2
2017-Jul-25 06:00N 57°49' E 010°23'817.0
2017-Jul-25 05:30N 57°49' E 010°39'816.2
2017-Jul-25 05:00N 57°45' E 010°53'816.3
2017-Jul-25 04:30N 57°40' E 011°04'714.6
2017-Jul-25 04:01N 57°35' E 011°14'714.7
2017-Jul-25 03:30N 57°29' E 011°23'714.9
2017-Jul-25 03:00N 57°23' E 011°29'815.3
2017-Jul-25 02:30N 57°16' E 011°34'815.2
2017-Jul-25 02:00N 57°08' E 011°39'815.1
2017-Jul-25 01:28N 57°01' E 011°44'715.0
2017-Jul-25 01:00N 56°54' E 011°48'815.0
2017-Jul-25 00:30N 56°47' E 011°52'913.9
2017-Jul-24 23:51N 56°39' E 011°47'2814.1
2017-Jul-24 21:53N 56°15' E 011°21'513.6
2017-Jul-24 21:29N 56°10' E 011°16'714.1
2017-Jul-24 20:59N 56°05' E 011°08'715.1
2017-Jul-24 20:30N 55°58' E 011°02'715.4
2017-Jul-24 20:00N 55°52' E 010°53'814.6
2017-Jul-24 19:30N 55°45' E 010°49'715.4
2017-Jul-24 19:00N 55°38' E 010°48'816.1
2017-Jul-24 18:29N 55°30' E 010°53'815.5
2017-Jul-24 17:58N 55°24' E 011°01'715.2
2017-Jul-24 17:29N 55°16' E 011°04'914.2
2017-Jul-24 16:53N 55°08' E 011°03'615.5
2017-Jul-24 16:30N 55°02' E 011°02'714.3
2017-Jul-24 16:00N 54°56' E 010°56'3812.7
2017-Jul-24 13:00N 54°28' E 011°40'1115.6
2017-Jul-24 12:17N 54°27' E 011°59'416.0
2017-Jul-24 12:00N 54°27' E 012°07'611.9
2017-Jul-24 11:30N 54°32' E 012°13'714.0
2017-Jul-24 11:00N 54°38' E 012°19'5615.1
2017-Jul-24 07:19N 55°01' E 013°47'515.1
2017-Jul-24 07:00N 55°03' E 013°54'814.9
2017-Jul-24 06:28N 55°07' E 014°06'715.4
2017-Jul-24 05:59N 55°12' E 014°15'815.7
2017-Jul-24 05:30N 55°18' E 014°24'815.6
2017-Jul-24 05:00N 55°24' E 014°33'815.3
2017-Jul-24 04:30N 55°29' E 014°43'815.3
2017-Jul-24 04:00N 55°33' E 014°55'715.2
2017-Jul-24 03:30N 55°36' E 015°06'815.2
2017-Jul-24 03:00N 55°40' E 015°18'815.2
2017-Jul-24 02:30N 55°44' E 015°30'815.2
2017-Jul-24 02:00N 55°48' E 015°42'815.3
2017-Jul-24 01:30N 55°51' E 015°53'815.6
2017-Jul-24 01:00N 55°55' E 016°06'815.5
2017-Jul-24 00:30N 55°59' E 016°18'815.5
2017-Jul-24 00:00N 56°03' E 016°30'815.5
2017-Jul-23 23:30N 56°07' E 016°41'815.4
2017-Jul-23 23:00N 56°12' E 016°53'815.3
2017-Jul-23 22:30N 56°16' E 017°03'815.3
2017-Jul-23 22:00N 56°21' E 017°14'815.3
2017-Jul-23 21:30N 56°26' E 017°25'815.2
2017-Jul-23 21:00N 56°30' E 017°36'815.3
2017-Jul-23 20:30N 56°35' E 017°47'815.5
2017-Jul-23 20:00N 56°40' E 017°59'1015.2
2017-Jul-23 19:21N 56°46' E 018°13'615.1
2017-Jul-23 18:56N 56°50' E 018°22'715.2
2017-Jul-23 18:30N 56°54' E 018°31'815.3
2017-Jul-23 18:00N 57°00' E 018°39'5915.6
2017-Jul-23 14:12N 57°48' E 019°44'314.3
2017-Jul-23 13:59N 57°50' E 019°48'715.1
2017-Jul-23 13:30N 57°56' E 019°56'714.2
2017-Jul-23 13:00N 58°02' E 020°05'815.2
2017-Jul-23 12:30N 58°08' E 020°13'815.1
2017-Jul-23 12:01N 58°14' E 020°21'815.2
2017-Jul-23 11:30N 58°20' E 020°30'815.3
2017-Jul-23 11:00N 58°26' E 020°39'815.0
2017-Jul-23 10:30N 58°32' E 020°47'715.2
2017-Jul-23 10:00N 58°38' E 020°56'815.8
2017-Jul-23 09:31N 58°45' E 021°05'815.8
2017-Jul-23 09:00N 58°51' E 021°14'815.2
2017-Jul-23 08:31N 58°57' E 021°23'815.0
2017-Jul-23 08:01N 59°03' E 021°32'714.9
2017-Jul-23 07:31N 59°09' E 021°41'815.3
2017-Jul-23 07:01N 59°14' E 021°52'815.7
2017-Jul-23 06:30N 59°18' E 022°04'815.7
2017-Jul-23 06:00N 59°23' E 022°16'815.8
2017-Jul-23 05:30N 59°28' E 022°29'815.6
2017-Jul-23 05:00N 59°31' E 022°43'815.5
2017-Jul-23 04:31N 59°34' E 022°57'815.3
2017-Jul-23 04:00N 59°36' E 023°12'815.4
2017-Jul-23 03:31N 59°38' E 023°26'815.6
2017-Jul-23 03:00N 59°40' E 023°41'815.3
2017-Jul-23 02:30N 59°43' E 023°56'815.8
2017-Jul-23 02:00N 59°45' E 024°11'815.5
2017-Jul-23 01:31N 59°47' E 024°25'815.5
2017-Jul-23 01:00N 59°49' E 024°41'815.6
2017-Jul-23 00:31N 59°50' E 024°56'815.5
2017-Jul-23 00:00N 59°52' E 025°11'815.8
2017-Jul-22 23:30N 59°53' E 025°26'815.6
2017-Jul-22 23:01N 59°55' E 025°42'714.7
2017-Jul-22 22:31N 59°59' E 025°54'815.4
2017-Jul-22 22:01N 60°03' E 026°07'815.4
2017-Jul-22 21:30N 60°09' E 026°18'815.5
2017-Jul-22 21:00N 60°15' E 026°27'714.5
2017-Jul-22 20:31N 60°20' E 026°37'816.8
2017-Jul-22 20:01N 60°24' E 026°52'2 2.8
2017-Jul-22 19:22N 60°25' E 026°54'0 0.0
2017-Jul-22 18:58N 60°25' E 026°54'0 0.0
2017-Jul-22 18:28N 60°25' E 026°54'0 0.0
2017-Jul-22 17:55N 60°25' E 026°54'0 0.0
2017-Jul-22 17:28N 60°25' E 026°54'0 0.0
2017-Jul-22 16:58N 60°25' E 026°54'0 0.0
2017-Jul-22 16:28N 60°25' E 026°54'0 0.0
2017-Jul-22 15:58N 60°25' E 026°54'0 0.0
2017-Jul-22 15:28N 60°25' E 026°54'0 0.0
2017-Jul-22 14:58N 60°25' E 026°54'0 0.0
2017-Jul-22 13:58N 60°25' E 026°54'0 0.0
2017-Jul-22 13:28N 60°25' E 026°54'0 0.0
2017-Jul-22 12:58N 60°25' E 026°54'0 0.0
2017-Jul-22 12:28N 60°25' E 026°54'0 0.0
2017-Jul-22 11:58N 60°25' E 026°54'0 0.0
2017-Jul-22 11:28N 60°25' E 026°54'0 0.0
2017-Jul-22 10:58N 60°25' E 026°54'0 0.0
2017-Jul-22 10:28N 60°25' E 026°54'0 0.0
2017-Jul-22 09:58N 60°25' E 026°54'0 0.0
2017-Jul-22 09:28N 60°25' E 026°54'0 0.0
2017-Jul-22 08:58N 60°25' E 026°54'0 0.0
2017-Jul-22 08:28N 60°25' E 026°54'0 0.0
2017-Jul-22 07:58N 60°25' E 026°54'0 0.0
2017-Jul-22 07:25N 60°25' E 026°54'0 0.0
2017-Jul-22 06:58N 60°25' E 026°54'0 0.0
2017-Jul-22 06:25N 60°25' E 026°54'0 0.0
2017-Jul-22 05:49N 60°25' E 026°54'0 0.0
2017-Jul-22 05:28N 60°25' E 026°54'0 0.0
2017-Jul-22 04:58N 60°25' E 026°54'0 0.0
2017-Jul-22 04:25N 60°25' E 026°54'0 0.0
2017-Jul-22 03:58N 60°25' E 026°54'0 0.0
2017-Jul-22 03:28N 60°25' E 026°54'0 0.0
2017-Jul-22 02:58N 60°25' E 026°54'0 0.0
2017-Jul-22 02:28N 60°25' E 026°54'0 0.0
2017-Jul-22 01:58N 60°25' E 026°54'0 0.0
2017-Jul-22 01:25N 60°25' E 026°54'0 0.0
2017-Jul-22 00:58N 60°25' E 026°54'0 0.0
2017-Jul-22 00:28N 60°25' E 026°54'0 0.0
2017-Jul-21 23:58N 60°25' E 026°54'0 0.0
2017-Jul-21 23:25N 60°25' E 026°54'0 0.0
2017-Jul-21 22:55N 60°25' E 026°54'0 0.0
2017-Jul-21 22:28N 60°25' E 026°54'0 0.0
2017-Jul-21 21:58N 60°25' E 026°54'0 0.0
2017-Jul-21 21:19N 60°25' E 026°54'0 0.0
2017-Jul-21 20:58N 60°25' E 026°54'0 0.0
2017-Jul-21 20:28N 60°25' E 026°54'0 0.0
2017-Jul-21 19:58N 60°25' E 026°54'0 0.0
2017-Jul-21 19:28N 60°25' E 026°54'0 0.0
2017-Jul-21 18:58N 60°25' E 026°54'0 0.0
2017-Jul-21 18:28N 60°25' E 026°54'0 0.0
2017-Jul-21 17:55N 60°25' E 026°54'0 0.0
2017-Jul-21 17:25N 60°25' E 026°54'0 0.0
2017-Jul-21 16:58N 60°25' E 026°54'0 0.0
2017-Jul-21 16:25N 60°25' E 026°54'0 0.0
2017-Jul-21 15:58N 60°25' E 026°54'0 0.0
2017-Jul-21 15:10N 60°25' E 026°54'0 0.0
2017-Jul-21 14:58N 60°25' E 026°54'0 0.0
2017-Jul-21 14:28N 60°25' E 026°54'0 0.0
2017-Jul-21 13:58N 60°25' E 026°54'0 0.0
2017-Jul-21 13:19N 60°25' E 026°54'0 0.0
2017-Jul-21 12:58N 60°25' E 026°54'0 0.0
2017-Jul-21 12:25N 60°25' E 026°54'0 0.0
2017-Jul-21 11:55N 60°25' E 026°54'0 0.0
2017-Jul-21 11:28N 60°25' E 026°54'0 0.0
2017-Jul-21 10:58N 60°25' E 026°54'0 0.0
2017-Jul-21 10:28N 60°25' E 026°54'0 0.0
2017-Jul-21 09:58N 60°25' E 026°54'0 0.0
2017-Jul-21 09:28N 60°25' E 026°54'0 0.0
2017-Jul-21 08:58N 60°25' E 026°54'0 0.0
2017-Jul-21 08:28N 60°25' E 026°54'0 0.0
2017-Jul-21 07:58N 60°25' E 026°54'0 0.0
2017-Jul-21 07:28N 60°25' E 026°54'0 0.0
2017-Jul-21 06:58N 60°25' E 026°54'0 0.0
2017-Jul-21 06:28N 60°25' E 026°54'0 0.0
2017-Jul-21 05:58N 60°25' E 026°54'0 0.0
2017-Jul-21 05:28N 60°25' E 026°54'0 0.0
2017-Jul-21 04:46N 60°25' E 026°54'0 0.0
2017-Jul-21 04:28N 60°25' E 026°54'0 0.0
2017-Jul-21 03:58N 60°25' E 026°54'0 0.0
2017-Jul-21 03:28N 60°25' E 026°54'0 0.0
2017-Jul-21 02:58N 60°25' E 026°54'0 0.0
2017-Jul-21 02:28N 60°25' E 026°54'0 0.0
2017-Jul-21 01:55N 60°25' E 026°54'0 0.0
2017-Jul-21 01:28N 60°25' E 026°54'0 0.0
2017-Jul-21 00:58N 60°25' E 026°54'0 0.0
2017-Jul-21 00:28N 60°25' E 026°54'0 0.0
2017-Jul-20 23:55N 60°25' E 026°54'0 0.0
2017-Jul-20 23:28N 60°25' E 026°54'0 0.0
2017-Jul-20 22:58N 60°25' E 026°54'0 0.0
2017-Jul-20 22:25N 60°25' E 026°54'0 0.0
2017-Jul-20 21:58N 60°25' E 026°54'0 0.0
2017-Jul-20 21:19N 60°25' E 026°54'0 0.0
2017-Jul-20 20:57N 60°25' E 026°54'0 0.0
2017-Jul-20 20:30N 60°25' E 026°54'0 0.0
2017-Jul-20 20:00N 60°25' E 026°54'0 0.0
2017-Jul-20 19:18N 60°25' E 026°54'0 0.0
2017-Jul-20 18:55N 60°25' E 026°54'0 0.0
2017-Jul-20 18:28N 60°25' E 026°54'0 0.0
2017-Jul-20 17:55N 60°25' E 026°54'0 0.0
2017-Jul-20 17:28N 60°25' E 026°54'0 0.0
2017-Jul-20 16:58N 60°25' E 026°54'0 0.0
2017-Jul-20 16:26N 60°25' E 026°54'0 0.0
2017-Jul-20 15:55N 60°25' E 026°54'0 0.0
2017-Jul-20 15:25N 60°25' E 026°54'0 0.0
2017-Jul-20 14:55N 60°25' E 026°54'0 0.0
2017-Jul-20 13:58N 60°25' E 026°54'0 0.0
2017-Jul-20 13:19N 60°25' E 026°54'0 0.0
2017-Jul-20 12:55N 60°25' E 026°54'0 0.0
2017-Jul-20 12:25N 60°25' E 026°54'1 1.3
2017-Jul-20 12:01N 60°25' E 026°55'611.4
2017-Jul-20 11:31N 60°22' E 026°44'816.8
2017-Jul-20 11:00N 60°17' E 026°31'713.7
2017-Jul-20 10:30N 60°12' E 026°23'714.2
2017-Jul-20 10:00N 60°05' E 026°17'714.2
2017-Jul-20 09:30N 59°59' E 026°10'713.8
2017-Jul-20 09:00N 59°55' E 025°59'714.9
2017-Jul-20 08:30N 59°53' E 025°45'714.9
2017-Jul-20 08:00N 59°51' E 025°31'714.8
2017-Jul-20 07:30N 59°49' E 025°16'714.9
2017-Jul-20 07:00N 59°47' E 025°02'714.8
2017-Jul-20 06:30N 59°46' E 024°48'715.0
2017-Jul-20 06:00N 59°44' E 024°33'714.9
2017-Jul-20 05:30N 59°43' E 024°19'714.9
2017-Jul-20 05:00N 59°40' E 024°05'714.9
2017-Jul-20 04:30N 59°38' E 023°51'714.9
2017-Jul-20 04:00N 59°36' E 023°37'815.1
2017-Jul-20 03:30N 59°33' E 023°23'815.1
2017-Jul-20 03:00N 59°31' E 023°09'815.2
2017-Jul-20 02:30N 59°28' E 022°55'815.1
2017-Jul-20 02:00N 59°25' E 022°41'714.8
2017-Jul-20 01:30N 59°21' E 022°29'815.0
2017-Jul-20 01:00N 59°17' E 022°17'815.1
2017-Jul-20 00:30N 59°12' E 022°05'815.2
2017-Jul-20 00:00N 59°07' E 021°53'715.1
2017-Jul-19 23:30N 59°02' E 021°42'815.0
2017-Jul-19 22:59N 58°56' E 021°34'16015.3
2017-Jul-19 12:32N 56°49' E 018°29'216.2
2017-Jul-19 12:26N 56°48' E 018°27'716.1
2017-Jul-19 11:58N 56°43' E 018°17'716.0
2017-Jul-19 11:31N 56°38' E 018°07'815.8
2017-Jul-19 11:00N 56°33' E 017°56'1115.6
2017-Jul-19 10:19N 56°27' E 017°40'515.4
2017-Jul-19 10:00N 56°24' E 017°34'915.4
2017-Jul-19 09:24N 56°18' E 017°20'815.4
2017-Jul-19 08:54N 56°14' E 017°09'615.5
2017-Jul-19 08:30N 56°10' E 017°00'1015.7
2017-Jul-19 07:53N 56°04' E 016°46'615.5
2017-Jul-19 07:30N 56°01' E 016°37'816.3
2017-Jul-19 07:00N 55°57' E 016°24'816.7
2017-Jul-19 06:31N 55°53' E 016°12'916.8
2017-Jul-19 06:00N 55°48' E 015°59'817.1
2017-Jul-19 05:30N 55°44' E 015°46'917.0
2017-Jul-19 05:00N 55°40' E 015°33'917.2
2017-Jul-19 04:30N 55°36' E 015°20'917.1
2017-Jul-19 04:00N 55°31' E 015°06'917.3
2017-Jul-19 03:31N 55°27' E 014°53'917.4
2017-Jul-19 03:00N 55°23' E 014°40'1217.3
2017-Jul-19 02:20N 55°14' E 014°26'617.5
2017-Jul-19 02:01N 55°10' E 014°20'917.4
2017-Jul-19 01:29N 55°03' E 014°09'917.3
2017-Jul-19 00:58N 54°58' E 013°56'817.6
2017-Jul-19 00:30N 54°56' E 013°42'2517.3
2017-Jul-18 23:02N 54°48' E 013°01'117.1
2017-Jul-18 23:01N 54°48' E 012°60'1617.0
2017-Jul-18 22:02N 54°40' E 012°35'117.3
2017-Jul-18 22:00N 54°39' E 012°34'917.2
2017-Jul-18 21:30N 54°34' E 012°23'917.2
2017-Jul-18 21:00N 54°27' E 012°13'2715.9
2017-Jul-18 19:17N 54°31' E 011°27'517.1
2017-Jul-18 18:59N 54°33' E 011°19'816.6
2017-Jul-18 18:30N 54°37' E 011°07'917.3
2017-Jul-18 18:00N 54°41' E 010°54'815.8
2017-Jul-18 17:31N 54°49' E 010°52'816.3
2017-Jul-18 17:00N 54°57' E 010°56'816.2
2017-Jul-18 16:29N 55°05' E 011°02'816.9
2017-Jul-18 16:00N 55°13' E 011°06'  
Track history (hours):
 
Tides and Currents Weather Stations Pressure Air Temp Water Temp Dewpoint Dewpoint Depression Visibility Wind Speed Wind Dir Waves Ship Positions

CMA CGM Volga

Last reported at 2017-Jul-28 15:00 UTC. Time now 2017-Jul-28 15:09 UTC.
Position N 51°57' E 001°18'.

Length 184 m; draft 6.4 m.

Type: Cargo ship. MMSI: 212456000.

Date/timePositionNaut miles runAvg speedWind from/ knotsBaromVisibWave heightAir tempDewpointWater temp
2017-Jul-28 15:00N 51°57' E 001°18'0 0.0
2017-Jul-28 14:27N 51°57' E 001°18'0 0.0
2017-Jul-28 14:00N 51°57' E 001°18'0 0.0
2017-Jul-28 13:30N 51°57' E 001°18'0 0.0
2017-Jul-28 12:57N 51°57' E 001°18'0 0.0
2017-Jul-28 12:30N 51°57' E 001°18'0 0.1
2017-Jul-28 12:00N 51°57' E 001°18'2 4.7
2017-Jul-28 11:30N 51°55' E 001°21'815.5
2017-Jul-28 11:00N 51°56' E 001°33'611.5
2017-Jul-28 10:31N 51°52' E 001°41'2 4.3
2017-Jul-28 10:00N 51°53' E 001°44'1 1.4
2017-Jul-28 09:30N 51°53' E 001°43'1 1.5
2017-Jul-28 08:59N 51°54' E 001°41'0 0.1
2017-Jul-28 08:26N 51°54' E 001°42'0 0.0
2017-Jul-28 07:59N 51°54' E 001°42'0 0.0
2017-Jul-28 07:29N 51°54' E 001°42'0 0.0
2017-Jul-28 06:56N 51°54' E 001°41'0 0.0
2017-Jul-28 06:29N 51°54' E 001°41'0 0.0
2017-Jul-28 05:56N 51°54' E 001°41'0 0.0
2017-Jul-28 05:29N 51°54' E 001°41'0 0.0
2017-Jul-28 04:50N 51°54' E 001°41'0 0.0
2017-Jul-28 04:26N 51°54' E 001°41'0 0.0
2017-Jul-28 03:59N 51°54' E 001°42'0 0.0
2017-Jul-28 03:29N 51°54' E 001°42'0 0.0
2017-Jul-28 02:56N 51°54' E 001°42'0 0.0
2017-Jul-28 02:29N 51°54' E 001°42'0 0.1
2017-Jul-28 01:59N 51°54' E 001°42'0 0.2
2017-Jul-28 01:23N 51°53' E 001°41'0 0.2
2017-Jul-28 00:56N 51°53' E 001°41'0 0.1
2017-Jul-28 00:29N 51°53' E 001°41'0 0.1
2017-Jul-27 23:59N 51°53' E 001°41'0 0.2
2017-Jul-27 23:29N 51°53' E 001°41'1 2.4
2017-Jul-27 23:00N 51°53' E 001°43'510.3
2017-Jul-27 22:30N 51°50' E 001°50'714.9
2017-Jul-27 22:00N 51°52' E 002°02'6519.3
2017-Jul-27 18:39N 52°03' E 003°45'0 0.0
2017-Jul-27 18:30N 52°03' E 003°45'0 0.0
2017-Jul-27 18:00N 52°03' E 003°45'713.6
2017-Jul-27 17:30N 52°03' E 003°56'510.7
2017-Jul-27 17:00N 51°60' E 004°03'1 2.8
2017-Jul-27 16:30N 51°58' E 004°02'2 3.1
2017-Jul-27 16:00N 51°57' E 004°00'0 0.0
2017-Jul-27 15:30N 51°57' E 004°00'0 0.0
2017-Jul-27 15:00N 51°57' E 004°00'0 0.0
2017-Jul-27 14:00N 51°57' E 004°00'0 0.0
2017-Jul-27 13:09N 51°57' E 004°00'0 0.0
2017-Jul-27 13:00N 51°57' E 004°00'0 0.0
2017-Jul-27 12:30N 51°57' E 004°00'0 0.0
2017-Jul-27 12:00N 51°57' E 004°00'0 0.0
2017-Jul-27 11:30N 51°57' E 004°00'0 0.0
2017-Jul-27 11:00N 51°57' E 004°00'0 0.0
2017-Jul-27 10:30N 51°57' E 004°00'0 0.0
2017-Jul-27 09:04N 51°57' E 004°00'0 0.0
2017-Jul-27 09:00N 51°57' E 004°00'0 0.0
2017-Jul-27 08:28N 51°57' E 004°00'0 0.0
2017-Jul-27 08:00N 51°57' E 004°00'0 0.0
2017-Jul-27 07:06N 51°57' E 004°00'0 0.0
2017-Jul-27 07:00N 51°57' E 004°00'0 0.0
2017-Jul-27 06:26N 51°57' E 004°00'0 0.0
2017-Jul-27 06:00N 51°57' E 004°00'0 0.0
2017-Jul-27 05:30N 51°57' E 004°00'0 0.0
2017-Jul-27 05:00N 51°57' E 004°00'0 0.0
2017-Jul-27 04:30N 51°57' E 004°00'0 0.0
2017-Jul-27 04:00N 51°57' E 004°00'0 0.0
2017-Jul-27 03:30N 51°57' E 004°00'0 0.0
2017-Jul-27 03:00N 51°57' E 004°00'0 0.0
2017-Jul-27 02:30N 51°57' E 004°00'0 0.0
2017-Jul-27 01:51N 51°57' E 004°00'0 0.0
2017-Jul-27 01:30N 51°57' E 004°00'0 0.0
2017-Jul-27 01:00N 51°57' E 004°00'0 0.0
2017-Jul-27 00:30N 51°57' E 004°00'0 0.0
2017-Jul-27 00:00N 51°57' E 004°00'0 0.0
2017-Jul-26 23:30N 51°57' E 004°00'0 0.0
2017-Jul-26 22:55N 51°57' E 004°00'0 0.0
2017-Jul-26 22:30N 51°57' E 004°00'0 0.0
2017-Jul-26 22:00N 51°57' E 004°00'0 0.0
2017-Jul-26 21:30N 51°57' E 004°00'0 0.0
2017-Jul-26 20:35N 51°57' E 004°00'0 0.0
2017-Jul-26 20:30N 51°57' E 004°00'1 2.0
2017-Jul-26 20:00N 51°58' E 003°60'3 6.2
2017-Jul-26 19:31N 51°58' E 004°05'4 8.1
2017-Jul-26 19:01N 52°00' E 003°59'713.9
2017-Jul-26 18:30N 52°00' E 003°48'19 4.1
2017-Jul-26 14:00N 51°54' E 003°20'0 0.0
2017-Jul-26 13:30N 51°54' E 003°20'815.5
2017-Jul-26 13:00N 51°54' E 003°07'2711.5
2017-Jul-26 10:41N 52°15' E 002°40'315.6
2017-Jul-26 10:28N 52°18' E 002°43'14815.2
2017-Jul-26 00:47N 54°23' E 004°54'515.6
2017-Jul-26 00:28N 54°26' E 005°00'815.5
2017-Jul-25 23:58N 54°32' E 005°09'6415.3
2017-Jul-25 19:46N 55°20' E 006°23'415.5
2017-Jul-25 19:30N 55°23' E 006°28'815.6
2017-Jul-25 19:00N 55°29' E 006°37'815.6
2017-Jul-25 18:30N 55°35' E 006°46'815.6
2017-Jul-25 18:00N 55°41' E 006°55'815.6
2017-Jul-25 17:30N 55°46' E 007°05'815.4
2017-Jul-25 17:00N 55°52' E 007°14'915.4
2017-Jul-25 16:26N 55°59' E 007°25'615.3
2017-Jul-25 16:00N 56°03' E 007°33'10514.7
2017-Jul-25 08:52N 57°34' E 009°09'514.8
2017-Jul-25 08:30N 57°37' E 009°17'714.7
2017-Jul-25 08:00N 57°41' E 009°29'715.0
2017-Jul-25 07:30N 57°44' E 009°41'715.0
2017-Jul-25 07:00N 57°47' E 009°54'815.0
2017-Jul-25 06:30N 57°49' E 010°08'816.2
2017-Jul-25 06:00N 57°49' E 010°23'817.0
2017-Jul-25 05:30N 57°49' E 010°39'816.2
2017-Jul-25 05:00N 57°45' E 010°53'816.3
2017-Jul-25 04:30N 57°40' E 011°04'714.6
2017-Jul-25 04:01N 57°35' E 011°14'714.7
2017-Jul-25 03:30N 57°29' E 011°23'714.9
2017-Jul-25 03:00N 57°23' E 011°29'815.3
2017-Jul-25 02:30N 57°16' E 011°34'815.2
2017-Jul-25 02:00N 57°08' E 011°39'815.1
2017-Jul-25 01:28N 57°01' E 011°44'715.0
2017-Jul-25 01:00N 56°54' E 011°48'815.0
2017-Jul-25 00:30N 56°47' E 011°52'913.9
2017-Jul-24 23:51N 56°39' E 011°47'2814.1
2017-Jul-24 21:53N 56°15' E 011°21'513.6
2017-Jul-24 21:29N 56°10' E 011°16'714.1
2017-Jul-24 20:59N 56°05' E 011°08'715.1
2017-Jul-24 20:30N 55°58' E 011°02'715.4
2017-Jul-24 20:00N 55°52' E 010°53'814.6
2017-Jul-24 19:30N 55°45' E 010°49'715.4
2017-Jul-24 19:00N 55°38' E 010°48'816.1
2017-Jul-24 18:29N 55°30' E 010°53'815.5
2017-Jul-24 17:58N 55°24' E 011°01'715.2
2017-Jul-24 17:29N 55°16' E 011°04'914.2
2017-Jul-24 16:53N 55°08' E 011°03'615.5
2017-Jul-24 16:30N 55°02' E 011°02'714.3
2017-Jul-24 16:00N 54°56' E 010°56'3812.7
2017-Jul-24 13:00N 54°28' E 011°40'1115.6
2017-Jul-24 12:17N 54°27' E 011°59'416.0
2017-Jul-24 12:00N 54°27' E 012°07'611.9
2017-Jul-24 11:30N 54°32' E 012°13'714.0
2017-Jul-24 11:00N 54°38' E 012°19'5615.1
2017-Jul-24 07:19N 55°01' E 013°47'515.1
2017-Jul-24 07:00N 55°03' E 013°54'814.9
2017-Jul-24 06:28N 55°07' E 014°06'715.4
2017-Jul-24 05:59N 55°12' E 014°15'815.7
2017-Jul-24 05:30N 55°18' E 014°24'815.6
2017-Jul-24 05:00N 55°24' E 014°33'815.3
2017-Jul-24 04:30N 55°29' E 014°43'815.3
2017-Jul-24 04:00N 55°33' E 014°55'715.2
2017-Jul-24 03:30N 55°36' E 015°06'815.2
2017-Jul-24 03:00N 55°40' E 015°18'815.2
2017-Jul-24 02:30N 55°44' E 015°30'815.2
2017-Jul-24 02:00N 55°48' E 015°42'815.3
2017-Jul-24 01:30N 55°51' E 015°53'815.6
2017-Jul-24 01:00N 55°55' E 016°06'815.5
2017-Jul-24 00:30N 55°59' E 016°18'815.5
2017-Jul-24 00:00N 56°03' E 016°30'815.5
2017-Jul-23 23:30N 56°07' E 016°41'815.4
2017-Jul-23 23:00N 56°12' E 016°53'815.3
2017-Jul-23 22:30N 56°16' E 017°03'815.3
2017-Jul-23 22:00N 56°21' E 017°14'815.3
2017-Jul-23 21:30N 56°26' E 017°25'815.2
2017-Jul-23 21:00N 56°30' E 017°36'815.3
2017-Jul-23 20:30N 56°35' E 017°47'815.5
2017-Jul-23 20:00N 56°40' E 017°59'1015.2
2017-Jul-23 19:21N 56°46' E 018°13'615.1
2017-Jul-23 18:56N 56°50' E 018°22'715.2
2017-Jul-23 18:30N 56°54' E 018°31'815.3
2017-Jul-23 18:00N 57°00' E 018°39'5915.6
2017-Jul-23 14:12N 57°48' E 019°44'314.3
2017-Jul-23 13:59N 57°50' E 019°48'715.1
2017-Jul-23 13:30N 57°56' E 019°56'714.2
2017-Jul-23 13:00N 58°02' E 020°05'815.2
2017-Jul-23 12:30N 58°08' E 020°13'815.1
2017-Jul-23 12:01N 58°14' E 020°21'815.2
2017-Jul-23 11:30N 58°20' E 020°30'815.3
2017-Jul-23 11:00N 58°26' E 020°39'815.0
2017-Jul-23 10:30N 58°32' E 020°47'715.2
2017-Jul-23 10:00N 58°38' E 020°56'815.8
2017-Jul-23 09:31N 58°45' E 021°05'815.8
2017-Jul-23 09:00N 58°51' E 021°14'815.2
2017-Jul-23 08:31N 58°57' E 021°23'815.0
2017-Jul-23 08:01N 59°03' E 021°32'714.9
2017-Jul-23 07:31N 59°09' E 021°41'815.3
2017-Jul-23 07:01N 59°14' E 021°52'815.7
2017-Jul-23 06:30N 59°18' E 022°04'815.7
2017-Jul-23 06:00N 59°23' E 022°16'815.8
2017-Jul-23 05:30N 59°28' E 022°29'815.6
2017-Jul-23 05:00N 59°31' E 022°43'815.5
2017-Jul-23 04:31N 59°34' E 022°57'815.3
2017-Jul-23 04:00N 59°36' E 023°12'815.4
2017-Jul-23 03:31N 59°38' E 023°26'815.6
2017-Jul-23 03:00N 59°40' E 023°41'815.3
2017-Jul-23 02:30N 59°43' E 023°56'815.8
2017-Jul-23 02:00N 59°45' E 024°11'815.5
2017-Jul-23 01:31N 59°47' E 024°25'815.5
2017-Jul-23 01:00N 59°49' E 024°41'815.6
2017-Jul-23 00:31N 59°50' E 024°56'815.5
2017-Jul-23 00:00N 59°52' E 025°11'815.8
2017-Jul-22 23:30N 59°53' E 025°26'815.6
2017-Jul-22 23:01N 59°55' E 025°42'714.7
2017-Jul-22 22:31N 59°59' E 025°54'815.4
2017-Jul-22 22:01N 60°03' E 026°07'815.4
2017-Jul-22 21:30N 60°09' E 026°18'815.5
2017-Jul-22 21:00N 60°15' E 026°27'714.5
2017-Jul-22 20:31N 60°20' E 026°37'816.8
2017-Jul-22 20:01N 60°24' E 026°52'2 2.8
2017-Jul-22 19:22N 60°25' E 026°54'0 0.0
2017-Jul-22 18:58N 60°25' E 026°54'0 0.0
2017-Jul-22 18:28N 60°25' E 026°54'0 0.0
2017-Jul-22 17:55N 60°25' E 026°54'0 0.0
2017-Jul-22 17:28N 60°25' E 026°54'0 0.0
2017-Jul-22 16:58N 60°25' E 026°54'0 0.0
2017-Jul-22 16:28N 60°25' E 026°54'0 0.0
2017-Jul-22 15:58N 60°25' E 026°54'0 0.0
2017-Jul-22 15:28N 60°25' E 026°54'0 0.0
2017-Jul-22 14:58N 60°25' E 026°54'0 0.0
2017-Jul-22 13:58N 60°25' E 026°54'0 0.0
2017-Jul-22 13:28N 60°25' E 026°54'0 0.0
2017-Jul-22 12:58N 60°25' E 026°54'0 0.0
2017-Jul-22 12:28N 60°25' E 026°54'0 0.0
2017-Jul-22 11:58N 60°25' E 026°54'0 0.0
2017-Jul-22 11:28N 60°25' E 026°54'0 0.0
2017-Jul-22 10:58N 60°25' E 026°54'0 0.0
2017-Jul-22 10:28N 60°25' E 026°54'0 0.0
2017-Jul-22 09:58N 60°25' E 026°54'0 0.0
2017-Jul-22 09:28N 60°25' E 026°54'0 0.0
2017-Jul-22 08:58N 60°25' E 026°54'0 0.0
2017-Jul-22 08:28N 60°25' E 026°54'0 0.0
2017-Jul-22 07:58N 60°25' E 026°54'0 0.0
2017-Jul-22 07:25N 60°25' E 026°54'0 0.0
2017-Jul-22 06:58N 60°25' E 026°54'0 0.0
2017-Jul-22 06:25N 60°25' E 026°54'0 0.0
2017-Jul-22 05:49N 60°25' E 026°54'0 0.0
2017-Jul-22 05:28N 60°25' E 026°54'0 0.0
2017-Jul-22 04:58N 60°25' E 026°54'0 0.0
2017-Jul-22 04:25N 60°25' E 026°54'0 0.0
2017-Jul-22 03:58N 60°25' E 026°54'0 0.0
2017-Jul-22 03:28N 60°25' E 026°54'0 0.0
2017-Jul-22 02:58N 60°25' E 026°54'0 0.0
2017-Jul-22 02:28N 60°25' E 026°54'0 0.0
2017-Jul-22 01:58N 60°25' E 026°54'0 0.0
2017-Jul-22 01:25N 60°25' E 026°54'0 0.0
2017-Jul-22 00:58N 60°25' E 026°54'0 0.0
2017-Jul-22 00:28N 60°25' E 026°54'0 0.0
2017-Jul-21 23:58N 60°25' E 026°54'0 0.0
2017-Jul-21 23:25N 60°25' E 026°54'0 0.0
2017-Jul-21 22:55N 60°25' E 026°54'0 0.0
2017-Jul-21 22:28N 60°25' E 026°54'0 0.0
2017-Jul-21 21:58N 60°25' E 026°54'0 0.0
2017-Jul-21 21:19N 60°25' E 026°54'0 0.0
2017-Jul-21 20:58N 60°25' E 026°54'0 0.0
2017-Jul-21 20:28N 60°25' E 026°54'0 0.0
2017-Jul-21 19:58N 60°25' E 026°54'0 0.0
2017-Jul-21 19:28N 60°25' E 026°54'0 0.0
2017-Jul-21 18:58N 60°25' E 026°54'0 0.0
2017-Jul-21 18:28N 60°25' E 026°54'0 0.0
2017-Jul-21 17:55N 60°25' E 026°54'0 0.0
2017-Jul-21 17:25N 60°25' E 026°54'0 0.0
2017-Jul-21 16:58N 60°25' E 026°54'0 0.0
2017-Jul-21 16:25N 60°25' E 026°54'0 0.0
2017-Jul-21 15:58N 60°25' E 026°54'0 0.0
2017-Jul-21 15:10N 60°25' E 026°54'0 0.0
2017-Jul-21 14:58N 60°25' E 026°54'0 0.0
2017-Jul-21 14:28N 60°25' E 026°54'0 0.0
2017-Jul-21 13:58N 60°25' E 026°54'0 0.0
2017-Jul-21 13:19N 60°25' E 026°54'0 0.0
2017-Jul-21 12:58N 60°25' E 026°54'0 0.0
2017-Jul-21 12:25N 60°25' E 026°54'0 0.0
2017-Jul-21 11:55N 60°25' E 026°54'0 0.0
2017-Jul-21 11:28N 60°25' E 026°54'0 0.0
2017-Jul-21 10:58N 60°25' E 026°54'0 0.0
2017-Jul-21 10:28N 60°25' E 026°54'0 0.0
2017-Jul-21 09:58N 60°25' E 026°54'0 0.0
2017-Jul-21 09:28N 60°25' E 026°54'0 0.0
2017-Jul-21 08:58N 60°25' E 026°54'0 0.0
2017-Jul-21 08:28N 60°25' E 026°54'0 0.0
2017-Jul-21 07:58N 60°25' E 026°54'0 0.0
2017-Jul-21 07:28N 60°25' E 026°54'0 0.0
2017-Jul-21 06:58N 60°25' E 026°54'0 0.0
2017-Jul-21 06:28N 60°25' E 026°54'0 0.0
2017-Jul-21 05:58N 60°25' E 026°54'0 0.0
2017-Jul-21 05:28N 60°25' E 026°54'0 0.0
2017-Jul-21 04:46N 60°25' E 026°54'0 0.0
2017-Jul-21 04:28N 60°25' E 026°54'0 0.0
2017-Jul-21 03:58N 60°25' E 026°54'0 0.0
2017-Jul-21 03:28N 60°25' E 026°54'0 0.0
2017-Jul-21 02:58N 60°25' E 026°54'0 0.0
2017-Jul-21 02:28N 60°25' E 026°54'0 0.0
2017-Jul-21 01:55N 60°25' E 026°54'0 0.0
2017-Jul-21 01:28N 60°25' E 026°54'0 0.0
2017-Jul-21 00:58N 60°25' E 026°54'0 0.0
2017-Jul-21 00:28N 60°25' E 026°54'0 0.0
2017-Jul-20 23:55N 60°25' E 026°54'0 0.0
2017-Jul-20 23:28N 60°25' E 026°54'0 0.0
2017-Jul-20 22:58N 60°25' E 026°54'0 0.0
2017-Jul-20 22:25N 60°25' E 026°54'0 0.0
2017-Jul-20 21:58N 60°25' E 026°54'0 0.0
2017-Jul-20 21:19N 60°25' E 026°54'0 0.0
2017-Jul-20 20:57N 60°25' E 026°54'0 0.0
2017-Jul-20 20:30N 60°25' E 026°54'0 0.0
2017-Jul-20 20:00N 60°25' E 026°54'0 0.0
2017-Jul-20 19:18N 60°25' E 026°54'0 0.0
2017-Jul-20 18:55N 60°25' E 026°54'0 0.0
2017-Jul-20 18:28N 60°25' E 026°54'0 0.0
2017-Jul-20 17:55N 60°25' E 026°54'0 0.0
2017-Jul-20 17:28N 60°25' E 026°54'0 0.0
2017-Jul-20 16:58N 60°25' E 026°54'0 0.0
2017-Jul-20 16:26N 60°25' E 026°54'0 0.0
2017-Jul-20 15:55N 60°25' E 026°54'0 0.0
2017-Jul-20 15:25N 60°25' E 026°54'0 0.0
2017-Jul-20 14:55N 60°25' E 026°54'0 0.0
2017-Jul-20 13:58N 60°25' E 026°54'0 0.0
2017-Jul-20 13:19N 60°25' E 026°54'0 0.0
2017-Jul-20 12:55N 60°25' E 026°54'0 0.0
2017-Jul-20 12:25N 60°25' E 026°54'1 1.3
2017-Jul-20 12:01N 60°25' E 026°55'611.4
2017-Jul-20 11:31N 60°22' E 026°44'816.8
2017-Jul-20 11:00N 60°17' E 026°31'713.7
2017-Jul-20 10:30N 60°12' E 026°23'714.2
2017-Jul-20 10:00N 60°05' E 026°17'714.2
2017-Jul-20 09:30N 59°59' E 026°10'713.8
2017-Jul-20 09:00N 59°55' E 025°59'714.9
2017-Jul-20 08:30N 59°53' E 025°45'714.9
2017-Jul-20 08:00N 59°51' E 025°31'714.8
2017-Jul-20 07:30N 59°49' E 025°16'714.9
2017-Jul-20 07:00N 59°47' E 025°02'714.8
2017-Jul-20 06:30N 59°46' E 024°48'715.0
2017-Jul-20 06:00N 59°44' E 024°33'714.9
2017-Jul-20 05:30N 59°43' E 024°19'714.9
2017-Jul-20 05:00N 59°40' E 024°05'714.9
2017-Jul-20 04:30N 59°38' E 023°51'714.9
2017-Jul-20 04:00N 59°36' E 023°37'815.1
2017-Jul-20 03:30N 59°33' E 023°23'815.1
2017-Jul-20 03:00N 59°31' E 023°09'815.2
2017-Jul-20 02:30N 59°28' E 022°55'815.1
2017-Jul-20 02:00N 59°25' E 022°41'714.8
2017-Jul-20 01:30N 59°21' E 022°29'815.0
2017-Jul-20 01:00N 59°17' E 022°17'815.1
2017-Jul-20 00:30N 59°12' E 022°05'815.2
2017-Jul-20 00:00N 59°07' E 021°53'715.1
2017-Jul-19 23:30N 59°02' E 021°42'815.0
2017-Jul-19 22:59N 58°56' E 021°34'16015.3
2017-Jul-19 12:32N 56°49' E 018°29'216.2
2017-Jul-19 12:26N 56°48' E 018°27'716.1
2017-Jul-19 11:58N 56°43' E 018°17'716.0
2017-Jul-19 11:31N 56°38' E 018°07'815.8
2017-Jul-19 11:00N 56°33' E 017°56'1115.6
2017-Jul-19 10:19N 56°27' E 017°40'515.4
2017-Jul-19 10:00N 56°24' E 017°34'915.4
2017-Jul-19 09:24N 56°18' E 017°20'815.4
2017-Jul-19 08:54N 56°14' E 017°09'615.5
2017-Jul-19 08:30N 56°10' E 017°00'1015.7
2017-Jul-19 07:53N 56°04' E 016°46'615.5
2017-Jul-19 07:30N 56°01' E 016°37'816.3
2017-Jul-19 07:00N 55°57' E 016°24'816.7
2017-Jul-19 06:31N 55°53' E 016°12'916.8
2017-Jul-19 06:00N 55°48' E 015°59'817.1
2017-Jul-19 05:30N 55°44' E 015°46'917.0
2017-Jul-19 05:00N 55°40' E 015°33'917.2
2017-Jul-19 04:30N 55°36' E 015°20'917.1
2017-Jul-19 04:00N 55°31' E 015°06'917.3
2017-Jul-19 03:31N 55°27' E 014°53'917.4
2017-Jul-19 03:00N 55°23' E 014°40'1217.3
2017-Jul-19 02:20N 55°14' E 014°26'617.5
2017-Jul-19 02:01N 55°10' E 014°20'917.4
2017-Jul-19 01:29N 55°03' E 014°09'917.3
2017-Jul-19 00:58N 54°58' E 013°56'817.6
2017-Jul-19 00:30N 54°56' E 013°42'2517.3
2017-Jul-18 23:02N 54°48' E 013°01'117.1
2017-Jul-18 23:01N 54°48' E 012°60'1617.0
2017-Jul-18 22:02N 54°40' E 012°35'117.3
2017-Jul-18 22:00N 54°39' E 012°34'917.2
2017-Jul-18 21:30N 54°34' E 012°23'917.2
2017-Jul-18 21:00N 54°27' E 012°13'2715.9
2017-Jul-18 19:17N 54°31' E 011°27'517.1
2017-Jul-18 18:59N 54°33' E 011°19'816.6
2017-Jul-18 18:30N 54°37' E 011°07'917.3
2017-Jul-18 18:00N 54°41' E 010°54'815.8
2017-Jul-18 17:31N 54°49' E 010°52'816.3
2017-Jul-18 17:00N 54°57' E 010°56'816.2
2017-Jul-18 16:29N 55°05' E 011°02'816.9
2017-Jul-18 16:00N 55°13' E 011°06'  

Dump ship's entire track history